Time;durP1;ratioP1;P1;durP2;ratioP2;P2;SDS_P1;SDS_P2;PMS_P1;PMS_P2;Temp;Humidity;BMP_temperature;BMP_pressure;BME280_temperature;BME280_humidity;BME280_pressure;Samples;Min_cycle;Max_cycle;Signal;HPM_P1;HPM_P2
2024/01/23 00:04:57;;;;;;;62.45;28.00;;;;;;;;;;10259629;28;20068;-61
2024/01/23 00:09:55;;;;;;;53.38;24.23;;;;;;;;;;10258415;28;20079;-61
2024/01/23 00:14:57;;;;;;;52.63;26.58;;;;;;;;;;10255528;28;20072;-61
2024/01/23 00:19:55;;;;;;;58.00;27.60;;;;;;;;;;10257219;28;20072;-61
2024/01/23 00:24:54;;;;;;;55.00;22.50;;;;;;;;;;10256846;28;20072;-61
2024/01/23 00:29:52;;;;;;;39.85;17.92;;;;;;;;;;10256585;28;20072;-60
2024/01/23 00:34:51;;;;;;;35.20;18.05;;;;;;;;;;10256038;28;20069;-61
2024/01/23 00:39:50;;;;;;;40.75;18.55;;;;;;;;;;10258996;28;20073;-62
2024/01/23 00:44:49;;;;;;;38.88;17.85;;;;;;;;;;10256385;28;20065;-62
2024/01/23 00:49:47;;;;;;;69.18;22.67;;;;;;;;;;10253852;28;20065;-61
2024/01/23 00:54:47;;;;;;;42.40;17.40;;;;;;;;;;10255029;28;20080;-62
2024/01/23 00:59:45;;;;;;;41.17;17.05;;;;;;;;;;10256735;28;20072;-62
2024/01/23 01:04:46;;;;;;;33.45;14.60;;;;;;;;;;10254521;28;20072;-62
2024/01/23 01:09:45;;;;;;;42.33;15.52;;;;;;;;;;10249649;28;20506;-61
2024/01/23 01:14:44;;;;;;;57.22;15.68;;;;;;;;;;10253381;28;20065;-60
2024/01/23 01:19:43;;;;;;;59.28;12.90;;;;;;;;;;10253987;28;20100;-62
2024/01/23 01:24:41;;;;;;;39.00;17.73;;;;;;;;;;10253809;28;20498;-61
2024/01/23 01:29:40;;;;;;;146.07;22.08;;;;;;;;;;10254455;28;20077;-61
2024/01/23 01:34:39;;;;;;;133.85;23.25;;;;;;;;;;10254399;28;20541;-61
2024/01/23 01:39:38;;;;;;;81.68;19.90;;;;;;;;;;10252400;28;20787;-62
2024/01/23 01:44:36;;;;;;;96.50;31.52;;;;;;;;;;10252352;28;20080;-61
2024/01/23 01:49:35;;;;;;;40.05;18.13;;;;;;;;;;10254922;28;20092;-60
2024/01/23 01:54:35;;;;;;;58.47;18.00;;;;;;;;;;10253728;28;20076;-61
2024/01/23 01:59:33;;;;;;;79.57;19.17;;;;;;;;;;10255440;28;20096;-61
2024/01/23 02:04:31;;;;;;;117.75;19.83;;;;;;;;;;10247573;28;20075;-60
2024/01/23 02:09:30;;;;;;;64.20;20.88;;;;;;;;;;10249848;28;20088;-62
2024/01/23 02:14:30;;;;;;;110.78;18.63;;;;;;;;;;10250778;28;20523;-61
2024/01/23 02:19:28;;;;;;;56.38;15.85;;;;;;;;;;10252873;28;20485;-61
2024/01/23 02:24:28;;;;;;;109.03;21.27;;;;;;;;;;10252651;28;20065;-61
2024/01/23 02:29:26;;;;;;;59.58;17.88;;;;;;;;;;10253231;28;20092;-61
2024/01/23 02:34:24;;;;;;;63.17;15.32;;;;;;;;;;10252000;28;20076;-61
2024/01/23 02:39:24;;;;;;;73.43;17.20;;;;;;;;;;10254006;28;20091;-61
2024/01/23 02:44:24;;;;;;;47.63;13.07;;;;;;;;;;10251447;28;20076;-61
2024/01/23 02:49:22;;;;;;;46.10;14.98;;;;;;;;;;10249055;28;20103;-62
2024/01/23 02:54:20;;;;;;;94.63;22.23;;;;;;;;;;10251952;28;20072;-62
2024/01/23 02:59:19;;;;;;;66.95;14.93;;;;;;;;;;10255731;28;20081;-61
2024/01/23 03:04:18;;;;;;;36.42;12.63;;;;;;;;;;10254137;28;20072;-62
2024/01/23 03:09:17;;;;;;;68.70;18.27;;;;;;;;;;10247868;28;20072;-61
2024/01/23 03:14:15;;;;;;;80.47;15.45;;;;;;;;;;10246915;28;20069;-62
2024/01/23 03:19:14;;;;;;;29.02;13.25;;;;;;;;;;10251953;28;20096;-61
2024/01/23 03:24:13;;;;;;;90.22;15.55;;;;;;;;;;10253536;28;20076;-61
2024/01/23 03:29:12;;;;;;;24.52;12.45;;;;;;;;;;10251703;28;20076;-61
2024/01/23 03:34:10;;;;;;;37.25;12.93;;;;;;;;;;10251774;28;20072;-61
2024/01/23 03:39:08;;;;;;;42.05;12.63;;;;;;;;;;10250710;28;20072;-61
2024/01/23 03:44:08;;;;;;;52.95;12.70;;;;;;;;;;10258293;28;20077;-61
2024/01/23 03:49:06;;;;;;;49.17;16.13;;;;;;;;;;10259262;28;20081;-61
2024/01/23 03:54:05;;;;;;;44.97;16.77;;;;;;;;;;10257375;28;20050;-63
2024/01/23 03:59:03;;;;;;;164.85;17.63;;;;;;;;;;10258977;28;20068;-61
2024/01/23 04:04:03;;;;;;;21.13;12.00;;;;;;;;;;10257184;28;20072;-62
2024/01/23 04:09:03;;;;;;;24.00;12.10;;;;;;;;;;10251525;28;20073;-62
2024/01/23 04:14:02;;;;;;;19.75;11.75;;;;;;;;;;10258217;28;20108;-60
2024/01/23 04:19:00;;;;;;;31.38;12.60;;;;;;;;;;10252983;28;20533;-61
2024/01/23 04:24:01;;;;;;;25.90;14.02;;;;;;;;;;10256174;28;20083;-61
2024/01/23 04:29:00;;;;;;;46.70;13.90;;;;;;;;;;10257196;28;20081;-62
2024/01/23 04:33:58;;;;;;;19.70;11.68;;;;;;;;;;10255600;28;20064;-62
2024/01/23 04:38:56;;;;;;;32.80;12.98;;;;;;;;;;10260710;28;20076;-61
2024/01/23 04:43:56;;;;;;;31.33;20.98;;;;;;;;;;10255854;28;20340;-61
2024/01/23 04:48:55;;;;;;;46.17;22.50;;;;;;;;;;10257954;28;20076;-62
2024/01/23 04:53:53;;;;;;;21.65;14.00;;;;;;;;;;10256604;28;20470;-62
2024/01/23 04:58:51;;;;;;;22.35;11.80;;;;;;;;;;10255702;28;20065;-62
2024/01/23 05:03:51;;;;;;;56.42;14.05;;;;;;;;;;10259571;28;20067;-61
2024/01/23 05:08:49;;;;;;;32.90;12.85;;;;;;;;;;10253495;28;20081;-62
2024/01/23 05:13:47;;;;;;;28.52;11.60;;;;;;;;;;10251241;28;20077;-62
2024/01/23 05:18:46;;;;;;;15.90;10.57;;;;;;;;;;10256036;28;20080;-61
2024/01/23 05:23:46;;;;;;;28.45;14.52;;;;;;;;;;10253671;28;20540;-67
2024/01/23 05:28:44;;;;;;;21.38;11.98;;;;;;;;;;10256199;28;20107;-66
2024/01/23 05:33:42;;;;;;;42.78;12.45;;;;;;;;;;10257704;28;20069;-66
2024/01/23 05:38:46;;;;;;;55.95;16.45;;;;;;;;;;10256280;28;20073;-65
2024/01/23 05:43:44;;;;;;;37.22;12.93;;;;;;;;;;10253900;28;20064;-66
2024/01/23 05:48:43;;;;;;;44.10;11.80;;;;;;;;;;10251736;28;20069;-66
2024/01/23 05:53:41;;;;;;;29.33;14.27;;;;;;;;;;10252307;28;20084;-66
2024/01/23 05:58:42;;;;;;;59.28;35.72;;;;;;;;;;10246084;28;20060;-66
2024/01/23 06:03:40;;;;;;;47.88;21.63;;;;;;;;;;10266227;28;20080;-66
2024/01/23 06:08:38;;;;;;;64.22;14.45;;;;;;;;;;10258408;28;20087;-67
2024/01/23 06:13:36;;;;;;;73.22;16.85;;;;;;;;;;10264962;28;20060;-67
2024/01/23 06:18:36;;;;;;;86.43;18.33;;;;;;;;;;10255406;28;20100;-67
2024/01/23 06:23:35;;;;;;;48.35;21.08;;;;;;;;;;10251997;28;20084;-67
2024/01/23 06:28:33;;;;;;;26.13;15.43;;;;;;;;;;10253189;28;20076;-67
2024/01/23 06:33:33;;;;;;;36.15;16.30;;;;;;;;;;10247421;28;20060;-66
2024/01/23 06:38:33;;;;;;;68.45;21.98;;;;;;;;;;10247015;28;20061;-68
2024/01/23 06:43:31;;;;;;;112.95;37.55;;;;;;;;;;10253371;28;20064;-66
2024/01/23 06:48:31;;;;;;;60.28;14.95;;;;;;;;;;10252444;28;20069;-67
2024/01/23 06:53:29;;;;;;;113.57;19.42;;;;;;;;;;10250293;28;20076;-66
2024/01/23 06:58:29;;;;;;;49.20;22.35;;;;;;;;;;10253960;28;20080;-66
2024/01/23 07:03:27;;;;;;;88.32;27.38;;;;;;;;;;10254255;28;20069;-66
2024/01/23 07:08:25;;;;;;;60.10;17.73;;;;;;;;;;10251390;28;20104;-66
2024/01/23 07:13:24;;;;;;;31.15;17.08;;;;;;;;;;10251913;28;20171;-68
2024/01/23 07:18:23;;;;;;;40.55;16.50;;;;;;;;;;10257416;28;20092;-67
2024/01/23 07:23:22;;;;;;;33.47;15.88;;;;;;;;;;10259735;28;20471;-68
2024/01/23 07:28:20;;;;;;;75.10;17.75;;;;;;;;;;10281332;28;20056;-69
2024/01/23 07:33:39;;;;;;;149.68;37.40;;;;;;;;;;10271919;28;20085;-68
2024/01/23 07:38:40;;;;;;;38.13;14.98;;;;;;;;;;10262692;28;20077;-67
2024/01/23 07:43:39;;;;;;;61.38;19.13;;;;;;;;;;10253940;28;20719;-67
2024/01/23 07:48:37;;;;;;;63.53;27.65;;;;;;;;;;10255994;28;20077;-68
2024/01/23 07:53:37;;;;;;;35.53;15.77;;;;;;;;;;10257665;28;20080;-67
2024/01/23 07:58:35;;;;;;;32.33;18.50;;;;;;;;;;10258265;28;20061;-67
2024/01/23 08:03:33;;;;;;;32.40;12.50;;;;;;;;;;10258274;28;20106;-68
2024/01/23 08:08:32;;;;;;;48.58;20.77;;;;;;;;;;10253479;28;20514;-68
2024/01/23 08:13:31;;;;;;;22.80;14.13;;;;;;;;;;10257192;28;20473;-67
2024/01/23 08:18:30;;;;;;;26.90;12.82;;;;;;;;;;10258665;28;20083;-66
2024/01/23 08:23:28;;;;;;;61.97;25.20;;;;;;;;;;10254502;28;20088;-66
2024/01/23 08:28:27;;;;;;;67.53;38.60;;;;;;;;;;10254909;28;20072;-66
2024/01/23 08:33:27;;;;;;;29.20;11.27;;;;;;;;;;10256089;28;20096;-67
2024/01/23 08:38:25;;;;;;;26.38;18.33;;;;;;;;;;10259940;28;20072;-61
2024/01/23 08:43:23;;;;;;;17.63;11.95;;;;;;;;;;10256851;28;20080;-61
2024/01/23 08:48:24;;;;;;;44.25;20.98;;;;;;;;;;10253196;28;20108;-61
2024/01/23 08:53:24;;;;;;;30.50;11.98;;;;;;;;;;10254475;28;20068;-61
2024/01/23 08:58:23;;;;;;;33.15;20.20;;;;;;;;;;10254247;28;20754;-59
2024/01/23 09:03:21;;;;;;;31.48;19.90;;;;;;;;;;10252255;28;20147;-61
2024/01/23 09:08:20;;;;;;;29.70;17.75;;;;;;;;;;10254894;28;20069;-62
2024/01/23 09:13:20;;;;;;;27.17;16.25;;;;;;;;;;10253488;28;20089;-61
2024/01/23 09:18:18;;;;;;;30.83;17.92;;;;;;;;;;10256406;28;20080;-61
2024/01/23 09:23:17;;;;;;;28.25;19.08;;;;;;;;;;10252930;28;20080;-61
2024/01/23 09:28:15;;;;;;;31.58;17.27;;;;;;;;;;10249132;28;20079;-60
2024/01/23 09:33:15;;;;;;;33.75;16.65;;;;;;;;;;10252940;28;20087;-60
2024/01/23 09:38:13;;;;;;;23.90;17.00;;;;;;;;;;10250540;28;20073;-60
2024/01/23 09:43:12;;;;;;;36.55;18.15;;;;;;;;;;10250727;28;20469;-60
2024/01/23 09:48:10;;;;;;;34.50;19.40;;;;;;;;;;10254231;28;20083;-60
2024/01/23 09:53:11;;;;;;;33.53;19.15;;;;;;;;;;10251764;28;20497;-61
2024/01/23 09:58:09;;;;;;;35.28;18.88;;;;;;;;;;10255947;28;20088;-60
2024/01/23 10:03:09;;;;;;;31.42;18.60;;;;;;;;;;10252844;28;20084;-61
2024/01/23 10:08:08;;;;;;;32.15;19.42;;;;;;;;;;10254158;28;20095;-61
2024/01/23 10:13:12;;;;;;;25.52;17.73;;;;;;;;;;10253498;28;20107;-60
2024/01/23 10:18:10;;;;;;;36.17;18.43;;;;;;;;;;10251209;28;20080;-60
2024/01/23 10:23:09;;;;;;;20.60;14.95;;;;;;;;;;10252541;28;20088;-61
2024/01/23 10:28:09;;;;;;;23.60;13.38;;;;;;;;;;10251965;28;20080;-61
2024/01/23 10:33:08;;;;;;;28.30;15.57;;;;;;;;;;10253180;28;20091;-60
2024/01/23 10:38:06;;;;;;;21.88;15.57;;;;;;;;;;10252765;28;20080;-60
2024/01/23 10:43:04;;;;;;;24.02;16.90;;;;;;;;;;10252661;28;20084;-60
2024/01/23 10:48:07;;;;;;;27.23;16.15;;;;;;;;;;10251173;28;20533;-61
2024/01/23 10:53:06;;;;;;;22.00;16.40;;;;;;;;;;10257794;28;20084;-61
2024/01/23 10:58:10;;;;;;;44.95;29.05;;;;;;;;;;10258714;28;20087;-61
2024/01/23 11:03:10;;;;;;;21.77;15.10;;;;;;;;;;10261793;28;20463;-62
2024/01/23 11:08:16;;;;;;;28.80;17.80;;;;;;;;;;10262103;28;20069;-62
2024/01/23 11:13:17;;;;;;;26.52;19.00;;;;;;;;;;10256694;28;20075;-61
2024/01/23 11:18:25;;;;;;;30.52;15.55;;;;;;;;;;10261274;28;20529;-62
2024/01/23 11:23:25;;;;;;;35.22;22.23;;;;;;;;;;10253080;28;20088;-61
2024/01/23 11:28:23;;;;;;;32.00;18.60;;;;;;;;;;10260630;28;20075;-61
2024/01/23 11:33:25;;;;;;;29.65;18.60;;;;;;;;;;10259396;28;20491;-61
2024/01/23 11:38:38;;;;;;;35.83;15.67;;;;;;;;;;10259677;28;20064;-60
2024/01/23 11:43:36;;;;;;;43.13;27.33;;;;;;;;;;10258766;28;20079;-60
2024/01/23 11:48:36;;;;;;;39.40;24.73;;;;;;;;;;10258149;28;20072;-60
2024/01/23 11:53:35;;;;;;;58.72;35.17;;;;;;;;;;10258291;28;20080;-61
2024/01/23 11:58:33;;;;;;;33.25;21.33;;;;;;;;;;10259850;28;20537;-61
2024/01/23 12:03:31;;;;;;;34.95;20.08;;;;;;;;;;10256939;28;20506;-62
2024/01/23 12:08:31;;;;;;;55.72;34.50;;;;;;;;;;10271988;28;20045;-61
2024/01/23 12:13:29;;;;;;;44.60;27.60;;;;;;;;;;10257439;28;20081;-60
2024/01/23 12:18:27;;;;;;;42.65;22.90;;;;;;;;;;10255082;28;20479;-60
2024/01/23 12:23:26;;;;;;;57.40;32.30;;;;;;;;;;10256718;28;20068;-61
2024/01/23 12:28:27;;;;;;;37.13;20.33;;;;;;;;;;10255586;28;20490;-63
2024/01/23 12:33:27;;;;;;;46.00;34.92;;;;;;;;;;10255550;28;20077;-60
2024/01/23 12:38:25;;;;;;;69.18;46.47;;;;;;;;;;10255991;28;20378;-61
2024/01/23 12:43:24;;;;;;;96.60;60.08;;;;;;;;;;10257236;28;20647;-61
2024/01/23 12:48:23;;;;;;;41.25;29.17;;;;;;;;;;10256422;28;20474;-60
2024/01/23 12:53:24;;;;;;;73.10;44.70;;;;;;;;;;10254665;28;20076;-62
2024/01/23 12:58:22;;;;;;;92.43;55.72;;;;;;;;;;10258161;28;20087;-61
2024/01/23 13:03:24;;;;;;;85.18;41.30;;;;;;;;;;10258940;28;20081;-61
2024/01/23 13:08:22;;;;;;;62.40;29.15;;;;;;;;;;10256790;28;20081;-61
2024/01/23 13:13:21;;;;;;;37.72;23.80;;;;;;;;;;10255856;28;20354;-61
2024/01/23 13:18:21;;;;;;;36.63;24.40;;;;;;;;;;10256592;28;20084;-62
2024/01/23 13:23:21;;;;;;;37.40;26.02;;;;;;;;;;10255746;28;20089;-62
2024/01/23 13:28:21;;;;;;;31.02;23.50;;;;;;;;;;10253040;28;20099;-62
2024/01/23 13:33:20;;;;;;;28.65;21.30;;;;;;;;;;10253391;28;20079;-61
2024/01/23 13:38:18;;;;;;;41.88;27.58;;;;;;;;;;10257405;28;20497;-61
2024/01/23 13:43:18;;;;;;;43.90;26.80;;;;;;;;;;10254797;28;20073;-61
2024/01/23 13:48:17;;;;;;;39.65;24.35;;;;;;;;;;10251067;28;20076;-61
2024/01/23 13:53:15;;;;;;;54.55;32.03;;;;;;;;;;10252667;28;20495;-61
2024/01/23 13:58:14;;;;;;;39.45;23.50;;;;;;;;;;10249495;28;20096;-61
2024/01/23 14:03:19;;;;;;;45.47;30.40;;;;;;;;;;10256881;28;20069;-61
2024/01/23 14:08:17;;;;;;;29.85;20.42;;;;;;;;;;10255944;28;20099;-61
2024/01/23 14:13:15;;;;;;;50.72;30.17;;;;;;;;;;10261191;28;20493;-61
2024/01/23 14:18:15;;;;;;;35.72;20.27;;;;;;;;;;10250623;28;20076;-61
2024/01/23 14:23:14;;;;;;;36.47;23.25;;;;;;;;;;10260714;28;20075;-61
2024/01/23 14:28:13;;;;;;;46.00;28.35;;;;;;;;;;10253082;28;20075;-61
2024/01/23 14:33:12;;;;;;;46.85;26.20;;;;;;;;;;10256312;28;20081;-61
2024/01/23 14:38:11;;;;;;;118.20;57.20;;;;;;;;;;10250116;28;20073;-61
2024/01/23 14:43:11;;;;;;;215.90;103.25;;;;;;;;;;10252892;28;20506;-61
2024/01/23 14:48:09;;;;;;;112.75;57.65;;;;;;;;;;10253481;28;20149;-59
2024/01/23 14:53:07;;;;;;;56.33;31.95;;;;;;;;;;10251027;28;20073;-60
2024/01/23 14:58:06;;;;;;;65.43;39.70;;;;;;;;;;10254921;28;20466;-61
2024/01/23 15:03:05;;;;;;;51.67;28.75;;;;;;;;;;10255994;28;20068;-61
2024/01/23 15:08:04;;;;;;;45.55;28.20;;;;;;;;;;10250524;28;20077;-60
2024/01/23 15:13:03;;;;;;;42.05;28.42;;;;;;;;;;10252979;28;20482;-61
2024/01/23 15:18:02;;;;;;;39.17;25.80;;;;;;;;;;10253385;28;20309;-60
2024/01/23 15:23:02;;;;;;;61.42;36.13;;;;;;;;;;10249863;28;20073;-62
2024/01/23 15:28:02;;;;;;;59.47;35.83;;;;;;;;;;10251840;28;20485;-59
2024/01/23 15:33:01;;;;;;;63.97;34.55;;;;;;;;;;10252473;28;20077;-60
2024/01/23 15:37:59;;;;;;;47.28;27.67;;;;;;;;;;10254496;28;20064;-60
2024/01/23 15:42:59;;;;;;;47.20;31.10;;;;;;;;;;10260160;28;20061;-60
2024/01/23 15:47:57;;;;;;;57.33;33.08;;;;;;;;;;10257300;28;20076;-60
2024/01/23 15:52:56;;;;;;;77.00;43.20;;;;;;;;;;10261236;28;20076;-61
2024/01/23 15:57:55;;;;;;;98.95;49.53;;;;;;;;;;10261253;28;20065;-59
2024/01/23 16:02:55;;;;;;;77.15;46.38;;;;;;;;;;10259566;28;20065;-60
2024/01/23 16:07:53;;;;;;;76.35;45.58;;;;;;;;;;10256521;28;20592;-60
2024/01/23 16:12:51;;;;;;;102.95;59.08;;;;;;;;;;10259950;28;20069;-59
2024/01/23 16:17:50;;;;;;;91.72;55.33;;;;;;;;;;10259181;28;20072;-59
2024/01/23 16:22:50;;;;;;;65.88;41.45;;;;;;;;;;10263101;28;20083;-60
2024/01/23 16:27:48;;;;;;;58.67;38.03;;;;;;;;;;10255161;28;20471;-59
2024/01/23 16:32:51;;;;;;;147.10;77.05;;;;;;;;;;10251230;28;20119;-61
2024/01/23 16:37:54;;;;;;;77.72;45.65;;;;;;;;;;10258298;28;20087;-59
2024/01/23 16:42:52;;;;;;;66.35;45.47;;;;;;;;;;10253425;28;20073;-60
2024/01/23 16:47:50;;;;;;;54.90;35.70;;;;;;;;;;10255188;28;20068;-59
2024/01/23 16:52:49;;;;;;;51.60;33.97;;;;;;;;;;10256998;28;20076;-59
2024/01/23 16:57:49;;;;;;;53.13;35.60;;;;;;;;;;10257273;28;20076;-59
2024/01/23 17:02:49;;;;;;;48.75;27.88;;;;;;;;;;10246909;28;20057;-61
2024/01/23 17:07:48;;;;;;;46.15;31.17;;;;;;;;;;10250209;28;20091;-61
2024/01/23 17:12:46;;;;;;;55.25;32.25;;;;;;;;;;10252300;28;20088;-61
2024/01/23 17:17:46;;;;;;;50.75;33.80;;;;;;;;;;10247117;28;20083;-60
2024/01/23 17:22:45;;;;;;;45.80;30.95;;;;;;;;;;10249092;28;20072;-61
2024/01/23 17:27:44;;;;;;;43.42;30.65;;;;;;;;;;10253046;28;20072;-60
2024/01/23 17:32:43;;;;;;;45.45;30.95;;;;;;;;;;10252555;28;20450;-60
2024/01/23 17:37:43;;;;;;;42.40;27.73;;;;;;;;;;10253435;28;20069;-60
2024/01/23 17:42:41;;;;;;;69.72;45.63;;;;;;;;;;10254241;28;20525;-61
2024/01/23 17:47:40;;;;;;;43.63;32.70;;;;;;;;;;10254170;28;20064;-60
2024/01/23 17:52:38;;;;;;;59.00;43.00;;;;;;;;;;10252807;28;20123;-60
2024/01/23 17:57:37;;;;;;;43.35;26.00;;;;;;;;;;10254785;28;20465;-61
2024/01/23 18:02:37;;;;;;;42.08;25.98;;;;;;;;;;10252284;28;20087;-62
2024/01/23 18:07:35;;;;;;;41.13;30.70;;;;;;;;;;10252484;28;20477;-60
2024/01/23 18:12:33;;;;;;;30.45;18.92;;;;;;;;;;10251605;28;20068;-60
2024/01/23 18:17:34;;;;;;;41.85;26.13;;;;;;;;;;10251516;28;20076;-60
2024/01/23 18:22:34;;;;;;;32.55;22.52;;;;;;;;;;10247955;28;20053;-60
2024/01/23 18:27:32;;;;;;;33.25;24.88;;;;;;;;;;10251462;28;20080;-60
2024/01/23 18:32:30;;;;;;;37.22;21.48;;;;;;;;;;10248966;28;20084;-61
2024/01/23 18:37:31;;;;;;;34.20;22.95;;;;;;;;;;10251229;28;20108;-62
2024/01/23 18:42:29;;;;;;;43.58;31.83;;;;;;;;;;10252859;28;20073;-60
2024/01/23 18:47:28;;;;;;;35.95;23.88;;;;;;;;;;10251401;28;20084;-61
2024/01/23 18:52:27;;;;;;;54.75;30.70;;;;;;;;;;10250986;28;20060;-60
2024/01/23 18:57:26;;;;;;;172.85;94.35;;;;;;;;;;10254080;28;20084;-62
2024/01/23 19:02:25;;;;;;;36.30;23.55;;;;;;;;;;10252353;28;20526;-60
2024/01/23 19:07:23;;;;;;;41.10;24.92;;;;;;;;;;10251631;28;20080;-60
2024/01/23 19:12:22;;;;;;;57.30;38.08;;;;;;;;;;10253963;28;20482;-61
2024/01/23 19:17:22;;;;;;;33.47;21.38;;;;;;;;;;10259423;28;20506;-61
2024/01/23 19:22:21;;;;;;;39.85;26.73;;;;;;;;;;10260666;28;20072;-61
2024/01/23 19:27:19;;;;;;;47.22;31.23;;;;;;;;;;10257182;28;20076;-61
2024/01/23 19:32:17;;;;;;;59.22;39.72;;;;;;;;;;10259114;28;20513;-61
2024/01/23 19:37:17;;;;;;;42.28;28.88;;;;;;;;;;10255336;28;20072;-61
2024/01/23 19:42:15;;;;;;;42.60;26.75;;;;;;;;;;10257262;28;20072;-61
2024/01/23 19:47:14;;;;;;;34.13;24.75;;;;;;;;;;10259929;28;20061;-61
2024/01/23 19:52:12;;;;;;;44.15;28.98;;;;;;;;;;10257922;28;20084;-62
2024/01/23 19:57:14;;;;;;;51.35;31.65;;;;;;;;;;10257545;28;20073;-60
2024/01/23 20:02:12;;;;;;;45.35;30.48;;;;;;;;;;10259638;28;20081;-61
2024/01/23 20:07:10;;;;;;;129.85;71.28;;;;;;;;;;10260068;28;20080;-63
2024/01/23 20:12:09;;;;;;;234.20;119.60;;;;;;;;;;10258171;28;20510;-60
2024/01/23 20:17:11;;;;;;;274.67;133.40;;;;;;;;;;10256568;28;20107;-60
2024/01/23 20:22:09;;;;;;;88.93;46.28;;;;;;;;;;10255477;28;20083;-60
2024/01/23 20:27:07;;;;;;;298.05;143.55;;;;;;;;;;10255728;28;20356;-61
2024/01/23 20:32:06;;;;;;;116.22;60.55;;;;;;;;;;10255307;28;20076;-61
2024/01/23 20:37:06;;;;;;;64.38;42.38;;;;;;;;;;10258226;28;20072;-61
2024/01/23 20:42:11;;;;;;;35.38;23.30;;;;;;;;;;10255793;28;20065;-61
2024/01/23 20:47:10;;;;;;;72.72;40.92;;;;;;;;;;10255127;28;20069;-60
2024/01/23 20:52:10;;;;;;;67.18;37.03;;;;;;;;;;10254153;28;20075;-61
2024/01/23 20:57:08;;;;;;;53.42;33.53;;;;;;;;;;10255139;28;20077;-60
2024/01/23 21:02:06;;;;;;;49.00;30.25;;;;;;;;;;10253687;28;20076;-61
2024/01/23 21:07:05;;;;;;;51.85;32.55;;;;;;;;;;10253811;28;20068;-61
2024/01/23 21:12:06;;;;;;;43.28;26.13;;;;;;;;;;10253386;28;20073;-61
2024/01/23 21:17:05;;;;;;;44.88;25.95;;;;;;;;;;10247454;28;20487;-61
2024/01/23 21:22:03;;;;;;;61.33;39.50;;;;;;;;;;10254593;28;20065;-61
2024/01/23 21:27:03;;;;;;;61.92;36.38;;;;;;;;;;10256803;28;20060;-61
2024/01/23 21:32:03;;;;;;;89.80;53.72;;;;;;;;;;10254964;28;20061;-61
2024/01/23 21:37:03;;;;;;;130.23;75.53;;;;;;;;;;10249599;28;20065;-61
2024/01/23 21:42:01;;;;;;;65.45;41.97;;;;;;;;;;10253749;28;20076;-61
2024/01/23 21:47:00;;;;;;;49.88;34.85;;;;;;;;;;10252499;28;20556;-61
2024/01/23 21:52:00;;;;;;;63.70;35.53;;;;;;;;;;10252551;28;20457;-61
2024/01/23 21:56:58;;;;;;;99.00;47.38;;;;;;;;;;10250969;28;20461;-61
2024/01/23 22:01:57;;;;;;;105.25;56.83;;;;;;;;;;10254766;28;20069;-61
2024/01/23 22:06:55;;;;;;;73.32;43.35;;;;;;;;;;10253154;28;20068;-61
2024/01/23 22:12:00;;;;;;;43.72;27.65;;;;;;;;;;10253033;28;20429;-61
2024/01/23 22:16:59;;;;;;;37.80;23.20;;;;;;;;;;10252095;28;20564;-61
2024/01/23 22:21:57;;;;;;;36.65;22.23;;;;;;;;;;10249577;28;20080;-61
2024/01/23 22:26:56;;;;;;;33.45;21.83;;;;;;;;;;10254537;28;20095;-61
2024/01/23 22:31:55;;;;;;;35.00;23.30;;;;;;;;;;10260304;28;20585;-61
2024/01/23 22:36:54;;;;;;;37.92;25.35;;;;;;;;;;10251069;28;20518;-61
2024/01/23 22:41:52;;;;;;;34.58;23.30;;;;;;;;;;10252025;28;20076;-61
2024/01/23 22:46:50;;;;;;;38.22;22.58;;;;;;;;;;10252557;28;20080;-61
2024/01/23 22:51:50;;;;;;;72.10;38.25;;;;;;;;;;10258582;28;20473;-61
2024/01/23 22:56:48;;;;;;;33.30;21.30;;;;;;;;;;10254322;28;20101;-61
2024/01/23 23:01:47;;;;;;;30.92;18.98;;;;;;;;;;10264349;28;20087;-60
2024/01/23 23:06:45;;;;;;;36.00;20.88;;;;;;;;;;10255158;28;20065;-61
2024/01/23 23:11:45;;;;;;;35.33;21.38;;;;;;;;;;10259904;28;20072;-61
2024/01/23 23:16:45;;;;;;;50.60;28.70;;;;;;;;;;10257660;28;20092;-61
2024/01/23 23:21:44;;;;;;;41.63;22.65;;;;;;;;;;10259096;28;20144;-61
2024/01/23 23:26:42;;;;;;;35.10;20.35;;;;;;;;;;10255726;28;20091;-60
2024/01/23 23:31:42;;;;;;;27.83;17.98;;;;;;;;;;10259600;28;20088;-60
2024/01/23 23:36:40;;;;;;;38.70;23.63;;;;;;;;;;10260003;28;20081;-60
2024/01/23 23:41:38;;;;;;;44.05;24.55;;;;;;;;;;10258101;28;20076;-60
2024/01/23 23:46:36;;;;;;;40.03;21.60;;;;;;;;;;10257043;28;20057;-61
2024/01/23 23:51:39;;;;;;;35.25;21.02;;;;;;;;;;10256697;28;20071;-60
2024/01/23 23:56:40;;;;;;;39.80;24.25;;;;;;;;;;10256093;28;20088;-60
